Time;durP1;ratioP1;P1;durP2;ratioP2;P2;SDS_P1;SDS_P2;PMS_P1;PMS_P2;Temp;Humidity;BMP_temperature;BMP_pressure;BME280_temperature;BME280_humidity;BME280_pressure;Samples;Min_cycle;Max_cycle;Signal;HPM_P1;HPM_P2
2022/06/14 00:03:39;;;;;;;5.35;1.83;;;;;;;18.25;58.01;100098.94;4340522;33;33079;-88
2022/06/14 00:06:13;;;;;;;3.15;2.22;;;;;;;18.19;58.15;100098.53;4342630;32;33236;-88
2022/06/14 00:08:41;;;;;;;4.70;1.85;;;;;;;18.39;57.38;100106.84;4358576;32;32675;-88
2022/06/14 00:11:14;;;;;;;3.92;2.10;;;;;;;18.33;57.43;100103.78;4355243;32;33839;-87
2022/06/14 00:13:43;;;;;;;3.37;2.12;;;;;;;18.35;57.64;100107.19;4357306;32;33222;-87
2022/06/14 00:16:11;;;;;;;3.72;2.20;;;;;;;18.37;57.87;100105.22;4359893;32;34549;-87
2022/06/14 00:18:39;;;;;;;2.58;2.17;;;;;;;18.26;57.90;100099.81;4347454;32;34310;-87
2022/06/14 00:21:08;;;;;;;2.87;1.83;;;;;;;18.31;57.75;100103.84;4347646;32;32896;-87
2022/06/14 00:23:36;;;;;;;3.70;2.00;;;;;;;18.20;58.11;100105.59;4334311;32;33570;-87
2022/06/14 00:26:05;;;;;;;3.30;2.05;;;;;;;18.31;58.12;100097.66;4357300;32;35359;-86
2022/06/14 00:28:34;;;;;;;9.88;2.28;;;;;;;18.12;58.48;100106.13;4323963;33;32792;-85
2022/06/14 00:31:09;;;;;;;3.83;2.60;;;;;;;18.16;58.63;100111.13;4344266;33;34179;-86
2022/06/14 00:33:37;;;;;;;2.92;2.17;;;;;;;17.80;59.69;100119.03;4340499;33;34112;-85
2022/06/14 00:36:07;;;;;;;3.08;2.50;;;;;;;17.67;60.32;100124.34;4345112;32;33884;-86
2022/06/14 00:38:37;;;;;;;2.22;2.03;;;;;;;18.02;59.31;100134.44;4351228;32;32633;-85
2022/06/14 00:41:06;;;;;;;5.32;2.87;;;;;;;18.00;59.24;100131.91;4353754;32;32710;-85
2022/06/14 00:43:33;;;;;;;5.53;2.75;;;;;;;17.95;59.71;100144.72;4344044;33;33610;-85
2022/06/14 00:46:11;;;;;;;2.55;2.35;;;;;;;17.85;60.08;100146.28;4347197;32;33358;-86
2022/06/14 00:48:43;;;;;;;6.35;2.58;;;;;;;17.43;61.26;100166.91;4346717;33;34354;-85
2022/06/14 00:51:16;;;;;;;3.75;2.47;;;;;;;17.72;60.61;100150.75;4350609;32;33874;-86
2022/06/14 00:53:49;;;;;;;4.55;3.05;;;;;;;17.62;61.09;100161.19;4342098;32;33293;-86
2022/06/14 00:56:26;;;;;;;5.80;3.20;;;;;;;17.67;61.00;100167.06;4358473;32;34676;-87
2022/06/14 00:59:00;;;;;;;5.78;3.58;;;;;;;17.33;62.60;100174.66;4359871;32;32895;-86
2022/06/14 01:01:33;;;;;;;5.65;3.08;;;;;;;17.15;63.19;100170.53;4359323;32;33077;-86
2022/06/14 01:04:09;;;;;;;2.47;2.28;;;;;;;17.46;62.08;100177.34;4358998;32;33628;-86
2022/06/14 01:06:52;;;;;;;3.62;2.78;;;;;;;17.60;60.85;100182.63;4355503;32;33779;-87
2022/06/14 01:09:45;;;;;;;3.95;2.30;;;;;;;17.07;62.72;100179.00;4361806;32;32991;-87
2022/06/14 01:12:16;;;;;;;4.03;3.10;;;;;;;17.36;61.36;100174.44;4361613;32;33602;-87
2022/06/14 01:15:00;;;;;;;5.62;2.33;;;;;;;17.36;61.45;100171.75;4360800;32;34264;-86
2022/06/14 01:17:28;;;;;;;4.62;2.65;;;;;;;17.21;62.44;100175.44;4360571;32;34486;-85
2022/06/14 01:19:58;;;;;;;5.03;2.50;;;;;;;16.96;62.58;100175.34;4361206;32;33640;-85
2022/06/14 01:22:27;;;;;;;4.03;2.50;;;;;;;17.35;62.17;100182.56;4360049;32;32984;-85
2022/06/14 01:24:56;;;;;;;3.22;2.65;;;;;;;17.09;62.60;100194.91;4360881;32;32762;-85
2022/06/14 01:27:25;;;;;;;3.80;2.22;;;;;;;17.27;62.15;100195.53;4354292;32;33712;-85
2022/06/14 01:30:19;;;;;;;2.58;2.25;;;;;;;17.30;61.58;100200.69;4360886;32;32998;-86
2022/06/14 01:32:54;;;;;;;5.80;2.53;;;;;;;17.36;61.60;100200.28;4361174;32;33964;-85
2022/06/14 01:35:25;;;;;;;3.95;2.60;;;;;;;17.77;60.04;100188.69;4359280;32;33976;-85
2022/06/14 01:37:55;;;;;;;4.00;2.53;;;;;;;17.69;60.33;100186.50;4348489;32;34009;-87
2022/06/14 01:41:02;;;;;;;2.45;2.17;;;;;;;17.44;61.29;100195.28;4361413;32;32996;-88
2022/06/14 01:43:37;;;;;;;3.53;2.55;;;;;;;17.14;62.61;100203.50;4347171;32;33179;-87
2022/06/14 01:46:05;;;;;;;3.97;2.40;;;;;;;17.04;62.47;100215.69;4358581;32;32876;-86
2022/06/14 01:48:43;;;;;;;5.87;2.85;;;;;;;17.08;62.05;100217.22;4349026;32;33899;-85
2022/06/14 01:54:14;;;;;;;2.60;2.10;;;;;;;17.35;61.45;100218.09;4360180;32;33577;-86
2022/06/14 01:56:58;;;;;;;3.55;2.17;;;;;;;17.59;60.45;100228.13;4349164;32;32973;-86
2022/06/14 01:59:36;;;;;;;7.50;2.55;;;;;;;17.57;60.48;100220.22;4336232;32;33406;-86
2022/06/14 02:02:10;;;;;;;5.07;2.40;;;;;;;17.45;60.41;100221.03;4349329;32;33246;-86
2022/06/14 02:04:56;;;;;;;4.03;3.22;;;;;;;17.22;61.59;100224.34;4349133;32;33887;-86
2022/06/14 02:08:01;;;;;;;5.03;2.45;;;;;;;17.48;60.45;100230.66;4360483;32;33954;-86
2022/06/14 02:10:39;;;;;;;3.25;2.08;;;;;;;17.49;60.11;100222.53;4332307;32;34139;-88
2022/06/14 02:13:25;;;;;;;4.30;2.87;;;;;;;17.61;59.68;100213.75;4347443;32;33052;-88
2022/06/14 02:16:03;;;;;;;5.12;2.65;;;;;;;17.71;59.48;100215.78;4361255;32;33879;-87
2022/06/14 02:18:37;;;;;;;14.07;2.42;;;;;;;17.54;60.04;100212.41;4353289;32;33067;-87
2022/06/14 02:21:13;;;;;;;2.15;1.98;;;;;;;17.18;61.17;100210.31;4358822;32;34458;-87
2022/06/14 02:23:45;;;;;;;6.95;2.62;;;;;;;16.81;62.23;100217.16;4359436;32;32647;-87
2022/06/14 02:26:22;;;;;;;3.37;3.08;;;;;;;16.94;62.12;100219.91;4354300;32;32757;-85
2022/06/14 02:28:54;;;;;;;7.50;2.50;;;;;;;17.29;61.01;100210.50;4347381;32;33152;-85
2022/06/14 02:31:28;;;;;;;;;;;;;;;17.43;60.39;100214.94;4353004;32;33493;-85
2022/06/14 02:34:08;;;;;;;5.82;2.97;;;;;;;17.44;60.39;100224.66;4342523;32;33257;-85
2022/06/14 02:36:49;;;;;;;7.95;2.20;;;;;;;17.02;61.80;100218.47;4347474;32;34245;-86
2022/06/14 02:39:23;;;;;;;3.55;2.30;;;;;;;17.19;61.38;100220.06;4348359;32;33055;-86
2022/06/14 02:41:59;;;;;;;5.78;2.70;;;;;;;16.89;62.25;100223.72;4360577;32;34770;-87
2022/06/14 02:44:38;;;;;;;5.20;3.40;;;;;;;16.89;62.25;100229.03;4358365;32;32691;-86
2022/06/14 02:47:31;;;;;;;5.40;2.35;;;;;;;16.85;62.36;100229.34;4336643;32;33943;-86
2022/06/14 02:50:04;;;;;;;5.22;2.78;;;;;;;17.03;61.73;100228.16;4358707;32;34781;-86
2022/06/14 02:52:41;;;;;;;5.60;2.12;;;;;;;16.93;61.92;100234.19;4360456;32;34758;-86
2022/06/14 02:55:18;;;;;;;3.65;2.40;;;;;;;17.03;61.52;100241.50;4354983;32;33369;-87
2022/06/14 02:57:58;;;;;;;4.93;2.25;;;;;;;16.96;61.72;100250.87;4358025;32;33600;-87
2022/06/14 03:00:36;;;;;;;6.80;2.25;;;;;;;16.73;62.44;100243.44;4358385;32;34085;-86
2022/06/14 03:03:10;;;;;;;5.10;2.58;;;;;;;16.77;62.49;100250.31;4338066;32;34392;-85
2022/06/14 03:06:02;;;;;;;4.65;2.53;;;;;;;16.84;61.97;100246.28;4346935;32;33220;-85
2022/06/14 03:08:35;;;;;;;2.40;2.20;;;;;;;17.10;61.16;100244.66;4356456;32;33325;-87
2022/06/14 03:11:32;;;;;;;2.45;2.25;;;;;;;17.03;61.58;100238.00;4347965;32;34128;-87
2022/06/14 03:14:24;;;;;;;6.35;2.30;;;;;;;17.06;61.31;100241.34;4296117;32;33125;-87
2022/06/14 03:17:01;;;;;;;6.65;2.37;;;;;;;17.00;61.47;100241.72;4359362;32;34005;-87
2022/06/14 03:19:48;;;;;;;2.58;2.37;;;;;;;16.94;61.19;100252.75;4347587;32;33248;-87
2022/06/14 03:22:20;;;;;;;7.00;2.60;;;;;;;16.94;61.44;100255.44;4347350;32;33194;-87
2022/06/14 03:24:56;;;;;;;;;;;;;;;17.02;61.28;100249.63;4342839;32;34763;-88
2022/06/14 03:27:39;;;;;;;4.85;2.37;;;;;;;17.09;61.17;100250.94;4341630;32;32416;-88
2022/06/14 03:30:26;;;;;;;3.70;2.47;;;;;;;17.27;61.01;100255.09;4343955;32;33111;-88
2022/06/14 03:33:22;;;;;;;3.22;2.35;;;;;;;17.11;61.10;100260.56;4350847;32;33207;-88
2022/06/14 03:35:53;;;;;;;2.83;2.17;;;;;;;17.20;60.85;100253.78;4359191;32;34129;-88
2022/06/14 03:38:48;;;;;;;4.25;2.40;;;;;;;17.04;61.31;100272.59;4332806;33;32793;-88
2022/06/14 03:41:24;;;;;;;2.45;2.25;;;;;;;17.30;61.33;100267.41;4353729;32;33838;-87
2022/06/14 03:43:57;;;;;;;2.87;2.15;;;;;;;17.52;60.26;100262.41;4361493;32;33024;-86
2022/06/14 03:46:39;;;;;;;7.72;2.72;;;;;;;17.41;60.72;100262.22;4358402;32;34482;-85
2022/06/14 03:49:20;;;;;;;6.65;2.58;;;;;;;17.63;59.87;100259.88;4338034;32;32442;-87
2022/06/14 03:51:48;;;;;;;3.92;2.92;;;;;;;17.54;60.34;100262.28;4361324;32;33064;-87
2022/06/14 03:54:41;;;;;;;3.60;2.35;;;;;;;17.65;60.60;100271.31;4350375;32;33746;-87
2022/06/14 03:57:25;;;;;;;6.35;2.25;;;;;;;17.77;60.17;100276.84;4350434;32;33838;-86
2022/06/14 04:00:06;;;;;;;2.62;2.30;;;;;;;18.01;59.21;100277.87;4347858;32;33569;-86
2022/06/14 04:03:07;;;;;;;3.10;2.15;;;;;;;18.17;58.29;100280.38;4361086;32;33952;-86
2022/06/14 04:06:11;;;;;;;4.07;2.03;;;;;;;18.01;58.73;100279.69;4361291;32;32915;-86
2022/06/14 04:09:21;;;;;;;5.07;2.50;;;;;;;18.38;57.83;100276.25;4357263;32;33810;-86
2022/06/14 04:12:02;;;;;;;3.08;2.37;;;;;;;18.31;58.09;100276.75;4348716;32;33413;-86
2022/06/14 04:14:46;;;;;;;2.53;2.00;;;;;;;18.39;58.09;100282.44;4361197;32;32644;-86
2022/06/14 04:17:36;;;;;;;3.33;2.62;;;;;;;18.34;57.54;100284.59;4361392;32;34008;-85
2022/06/14 04:20:28;;;;;;;6.40;2.22;;;;;;;18.26;58.42;100287.75;4357062;32;33139;-86
2022/06/14 04:23:03;;;;;;;5.05;2.60;;;;;;;18.45;57.67;100287.38;4360618;32;33205;-86
2022/06/14 04:25:38;;;;;;;4.62;2.58;;;;;;;18.40;57.57;100289.50;4350354;32;32604;-88
2022/06/14 04:28:16;;;;;;;2.70;2.50;;;;;;;18.26;58.52;100297.59;4359899;32;32780;-89
2022/06/14 04:30:49;;;;;;;3.55;2.15;;;;;;;18.33;58.20;100293.56;4347372;33;34055;-89
2022/06/14 04:33:33;;;;;;;4.87;2.37;;;;;;;18.46;57.82;100294.41;4347801;33;32750;-90
2022/06/14 04:36:07;;;;;;;4.75;2.33;;;;;;;18.78;57.30;100284.22;4343228;32;33285;-85
2022/06/14 04:38:46;;;;;;;4.50;2.80;;;;;;;18.66;56.63;100296.59;4360457;32;33822;-89
2022/06/14 04:41:30;;;;;;;5.12;3.42;;;;;;;18.65;57.25;100308.25;4362620;32;33348;-88
2022/06/14 04:44:08;;;;;;;5.57;2.05;;;;;;;18.67;57.09;100302.81;4362071;32;32680;-88
2022/06/14 04:46:54;;;;;;;10.48;2.80;;;;;;;18.82;57.41;100300.91;4361756;32;32903;-86
2022/06/14 04:49:30;;;;;;;3.45;2.05;;;;;;;19.20;56.47;100308.91;4360465;32;33141;-86
2022/06/14 04:52:26;;;;;;;6.30;2.42;;;;;;;19.05;57.10;100318.87;4366769;32;33344;-87
2022/06/14 04:55:29;;;;;;;3.80;2.05;;;;;;;19.11;56.11;100318.44;4328332;32;31797;-87
2022/06/14 04:58:16;;;;;;;3.80;2.20;;;;;;;19.16;56.01;100310.94;4349755;32;33536;-87
2022/06/14 05:00:53;;;;;;;4.85;2.30;;;;;;;19.52;55.04;100319.13;4351262;32;33663;-91
2022/06/14 05:03:28;;;;;;;2.58;2.20;;;;;;;19.42;55.31;100316.25;4355560;32;33838;-94
2022/06/14 05:06:19;;;;;;;6.53;2.30;;;;;;;19.82;54.86;100326.75;4350612;33;32087;-95
2022/06/14 05:09:21;;;;;;;3.47;2.00;;;;;;;19.77;55.41;100326.25;4343175;32;34686;-94
2022/06/14 05:12:11;;;;;;;5.10;2.03;;;;;;;19.63;54.68;100336.16;4362162;32;32925;-93
2022/06/14 05:15:32;;;;;;;3.12;2.17;;;;;;;19.78;54.41;100338.66;4364205;32;33278;-91
2022/06/14 05:18:30;;;;;;;3.25;1.85;;;;;;;19.99;53.45;100341.59;4302294;33;34189;-90
2022/06/14 05:21:18;;;;;;;2.12;1.92;;;;;;;19.95;53.61;100341.81;4365803;32;33306;-90
2022/06/14 05:24:05;;;;;;;5.32;2.00;;;;;;;19.86;53.71;100349.69;4361519;32;33674;-92
2022/06/14 05:27:28;;;;;;;4.65;2.37;;;;;;;19.92;53.95;100351.91;4359299;32;33280;-92
2022/06/14 05:30:20;;;;;;;4.22;2.35;;;;;;;19.99;53.76;100344.25;4361412;32;33453;-91
2022/06/14 05:33:21;;;;;;;4.57;1.87;;;;;;;20.41;53.21;100342.88;4363146;32;33248;-92
2022/06/14 05:36:10;;;;;;;7.32;2.00;;;;;;;20.40;53.00;100341.16;4363458;32;33620;-94
2022/06/14 05:39:00;;;;;;;2.78;2.37;;;;;;;20.70;53.11;100338.00;4379414;32;33033;-92
2022/06/14 05:41:55;;;;;;;3.70;2.53;;;;;;;20.70;52.40;100336.19;4383478;32;32950;-89
2022/06/14 05:44:31;;;;;;;6.30;2.87;;;;;;;20.52;53.21;100339.41;4391861;32;33769;-89
2022/06/14 05:47:15;;;;;;;3.12;2.20;;;;;;;20.87;53.08;100339.38;4384450;32;33575;-89
2022/06/14 05:49:55;;;;;;;3.12;2.00;;;;;;;21.04;51.23;100336.22;4381027;32;32894;-87
2022/06/14 05:52:32;;;;;;;4.45;2.22;;;;;;;21.09;50.99;100330.50;4392206;32;33455;-89
2022/06/14 05:55:14;;;;;;;2.20;1.90;;;;;;;21.21;51.61;100335.72;4376242;32;32892;-88
2022/06/14 05:58:00;;;;;;;6.67;2.10;;;;;;;21.03;51.61;100339.88;4361595;32;32549;-89
2022/06/14 06:01:11;;;;;;;4.03;2.08;;;;;;;21.00;51.44;100340.12;4365381;32;34413;-88
2022/06/14 06:04:32;;;;;;;1.90;1.80;;;;;;;21.23;51.06;100347.22;4326218;33;33347;-89
2022/06/14 06:07:06;;;;;;;3.22;2.30;;;;;;;21.59;49.71;100353.31;4341547;33;33466;-89
2022/06/14 06:09:41;;;;;;;3.97;2.10;;;;;;;21.53;49.52;100348.44;4321371;33;33042;-89
2022/06/14 06:12:16;;;;;;;3.00;2.12;;;;;;;21.62;49.36;100358.47;4355210;32;32918;-90
2022/06/14 06:14:58;;;;;;;5.43;2.05;;;;;;;21.45;49.74;100357.12;4387442;32;34192;-89
2022/06/14 06:17:36;;;;;;;5.68;2.08;;;;;;;21.94;49.11;100352.28;4385743;32;33803;-89
2022/06/14 06:20:26;;;;;;;4.68;2.00;;;;;;;21.79;49.07;100357.09;4381819;32;33570;-89
2022/06/14 06:23:07;;;;;;;3.97;2.08;;;;;;;22.08;49.59;100370.84;4366501;32;33661;-89
2022/06/14 06:25:40;;;;;;;4.32;1.90;;;;;;;22.23;48.45;100364.22;4387394;32;34084;-90
2022/06/14 06:28:17;;;;;;;4.18;2.05;;;;;;;22.52;47.65;100368.12;4395401;32;33019;-88
2022/06/14 06:30:53;;;;;;;4.18;2.10;;;;;;;22.41;47.25;100367.19;4383364;32;33516;-88
2022/06/14 06:33:22;;;;;;;3.35;1.83;;;;;;;22.30;48.17;100371.75;4386504;32;33903;-87
2022/06/14 06:36:18;;;;;;;5.00;2.67;;;;;;;22.22;48.15;100375.09;4390850;32;32403;-89
2022/06/14 06:39:05;;;;;;;5.30;2.10;;;;;;;22.31;48.87;100370.75;4380489;32;33547;-88
2022/06/14 06:41:50;;;;;;;3.35;2.50;;;;;;;22.61;47.97;100375.41;4350240;32;33113;-87
2022/06/14 06:44:44;;;;;;;2.78;1.75;;;;;;;22.55;47.17;100374.09;4374780;32;34051;-88
2022/06/14 06:47:16;;;;;;;6.28;2.47;;;;;;;22.72;46.78;100369.97;4365969;32;33648;-88
2022/06/14 06:49:59;;;;;;;3.42;1.73;;;;;;;22.72;46.66;100376.19;4382552;32;34399;-88
2022/06/14 06:52:49;;;;;;;7.45;2.12;;;;;;;22.93;45.74;100369.97;4368599;32;32523;-88
2022/06/14 06:55:48;;;;;;;7.57;1.87;;;;;;;22.77;45.73;100377.66;4375381;32;34617;-87
2022/06/14 06:58:24;;;;;;;4.03;1.90;;;;;;;23.30;46.17;100377.56;4365163;32;33237;-88
2022/06/14 07:01:01;;;;;;;3.97;1.60;;;;;;;23.09;45.51;100378.47;4382728;32;33899;-88
2022/06/14 07:03:40;;;;;;;3.53;2.15;;;;;;;23.46;44.57;100377.94;4367984;32;33272;-88
2022/06/14 07:06:27;;;;;;;3.53;1.67;;;;;;;23.07;43.71;100387.66;4375331;32;33720;-87
2022/06/14 07:09:02;;;;;;;2.53;2.00;;;;;;;23.74;44.03;100374.53;4379450;32;33962;-88
2022/06/14 07:11:49;;;;;;;2.87;1.37;;;;;;;23.45;42.57;100374.41;4383605;32;34309;-88
2022/06/14 07:14:29;;;;;;;5.05;1.80;;;;;;;23.23;43.54;100377.25;4360771;32;33388;-88
2022/06/14 07:17:04;;;;;;;5.22;1.77;;;;;;;23.88;43.64;100370.59;4374681;32;33588;-88
2022/06/14 07:19:47;;;;;;;1.50;1.10;;;;;;;24.01;43.33;100375.69;4363951;32;33497;-88
2022/06/14 07:22:35;;;;;;;4.35;1.92;;;;;;;23.83;40.38;100377.34;4369129;32;32790;-88
2022/06/14 07:25:14;;;;;;;2.00;1.62;;;;;;;23.68;41.09;100380.44;4379923;32;34717;-88
2022/06/14 07:28:01;;;;;;;6.90;1.37;;;;;;;24.02;41.84;100383.66;4362168;32;33378;-88
2022/06/14 07:30:39;;;;;;;4.62;1.60;;;;;;;23.66;39.30;100381.59;4358291;32;32613;-88
2022/06/14 07:33:09;;;;;;;4.57;1.75;;;;;;;23.82;39.79;100378.34;4375109;32;32694;-88
2022/06/14 07:35:57;;;;;;;4.05;1.65;;;;;;;24.10;40.44;100374.84;4351795;32;32994;-88
2022/06/14 07:38:30;;;;;;;6.82;2.00;;;;;;;24.42;38.49;100374.62;4368291;32;34561;-87
2022/06/14 07:41:03;;;;;;;1.35;1.05;;;;;;;24.48;40.21;100373.22;4354849;32;32838;-88
2022/06/14 07:43:43;;;;;;;2.35;1.42;;;;;;;24.45;38.99;100370.78;4359266;32;33215;-88
2022/06/14 07:46:16;;;;;;;4.93;1.70;;;;;;;24.59;39.20;100370.34;4367099;32;33724;-88
2022/06/14 07:48:51;;;;;;;4.93;1.80;;;;;;;24.64;39.86;100370.81;4367356;32;32956;-88
2022/06/14 07:51:34;;;;;;;5.45;1.10;;;;;;;24.85;38.44;100373.31;4365873;32;33230;-88
2022/06/14 07:54:05;;;;;;;;;;;;;;;24.90;38.74;100378.28;4362588;32;33546;-88
2022/06/14 07:56:54;;;;;;;3.67;2.03;;;;;;;25.21;39.37;100371.72;4362682;32;33343;-89
2022/06/14 07:59:27;;;;;;;5.00;1.45;;;;;;;24.46;37.65;100372.53;4354870;32;32795;-88
2022/06/14 08:02:03;;;;;;;1.62;1.08;;;;;;;24.90;37.15;100375.59;4367563;32;33613;-89
2022/06/14 08:05:02;;;;;;;4.22;1.62;;;;;;;25.09;37.40;100372.87;4348195;32;33321;-88
2022/06/14 08:07:31;;;;;;;2.83;1.42;;;;;;;25.37;38.27;100365.66;4363598;32;33935;-89
2022/06/14 08:10:03;;;;;;;3.75;1.20;;;;;;;25.72;35.58;100354.09;4363563;32;33757;-87
2022/06/14 08:12:36;;;;;;;3.53;1.67;;;;;;;25.61;35.43;100364.28;4355177;32;33330;-88
2022/06/14 08:15:08;;;;;;;5.65;1.20;;;;;;;25.07;34.78;100361.38;4353691;32;34250;-88
2022/06/14 08:18:18;;;;;;;2.70;1.30;;;;;;;25.47;35.57;100366.47;4366314;32;33589;-89
2022/06/14 08:21:09;;;;;;;4.97;1.65;;;;;;;25.43;34.72;100358.81;4343002;33;33956;-88
2022/06/14 08:23:52;;;;;;;4.03;1.65;;;;;;;25.29;31.32;100373.66;4344548;32;33012;-88
2022/06/14 08:26:36;;;;;;;1.55;1.12;;;;;;;25.61;32.22;100362.44;4366032;32;33956;-88
2022/06/14 08:29:18;;;;;;;4.30;1.12;;;;;;;25.48;31.07;100367.31;4360531;32;33461;-88
2022/06/14 08:32:02;;;;;;;5.62;1.48;;;;;;;25.73;31.18;100371.16;4354184;32;33369;-88
2022/06/14 08:34:39;;;;;;;5.10;1.75;;;;;;;25.74;29.20;100362.94;4367828;32;32038;-87
2022/06/14 08:37:19;;;;;;;2.08;1.20;;;;;;;25.75;29.42;100359.25;4377984;32;33416;-88
2022/06/14 08:39:54;;;;;;;3.12;1.48;;;;;;;25.47;30.48;100357.50;4378874;32;32943;-88
2022/06/14 08:42:30;;;;;;;3.22;1.20;;;;;;;25.58;30.80;100361.88;4369481;32;33759;-88
2022/06/14 08:45:03;;;;;;;2.83;0.75;;;;;;;25.41;30.24;100360.81;4360434;32;32619;-88
2022/06/14 08:48:06;;;;;;;3.92;1.05;;;;;;;25.98;29.15;100359.69;4385990;32;34714;-88
2022/06/14 08:51:00;;;;;;;4.78;1.05;;;;;;;25.84;32.04;100357.50;4369375;32;33393;-88
2022/06/14 08:53:48;;;;;;;4.80;1.83;;;;;;;25.53;32.10;100367.72;4359580;32;33447;-88
2022/06/14 08:56:35;;;;;;;2.15;0.80;;;;;;;25.55;31.24;100368.44;4373341;32;32885;-87
2022/06/14 08:59:09;;;;;;;4.25;1.62;;;;;;;25.98;30.84;100364.25;4368131;32;33797;-88
2022/06/14 09:02:10;;;;;;;3.08;1.23;;;;;;;26.01;31.59;100369.31;4373075;32;34846;-88
2022/06/14 09:05:13;;;;;;;3.67;1.20;;;;;;;26.17;29.64;100368.66;4383688;32;34482;-87
2022/06/14 09:07:55;;;;;;;1.62;0.82;;;;;;;26.08;30.27;100369.59;4370985;32;32935;-88
2022/06/14 09:10:49;;;;;;;2.75;1.40;;;;;;;26.09;30.61;100360.47;4376256;32;32258;-88
2022/06/14 09:13:37;;;;;;;2.05;1.20;;;;;;;26.25;29.84;100356.06;4368894;32;33689;-88
2022/06/14 09:16:38;;;;;;;1.58;1.00;;;;;;;26.34;29.79;100365.09;4372110;32;32848;-87
2022/06/14 09:19:24;;;;;;;1.73;0.77;;;;;;;26.48;28.36;100364.59;4346038;32;32769;-88
2022/06/14 09:22:05;;;;;;;6.95;1.25;;;;;;;26.47;30.12;100353.91;4363828;32;33543;-88
2022/06/14 09:24:53;;;;;;;1.65;1.15;;;;;;;26.53;29.53;100356.00;4383140;32;32983;-88
2022/06/14 09:27:50;;;;;;;1.62;1.10;;;;;;;26.26;27.36;100357.78;4370974;32;34167;-87
2022/06/14 09:30:34;;;;;;;2.45;1.10;;;;;;;26.80;27.77;100344.19;4373482;32;32790;-88
2022/06/14 09:33:23;;;;;;;2.45;0.75;;;;;;;27.00;26.00;100350.25;4371344;32;34757;-87
2022/06/14 09:36:28;;;;;;;1.17;0.97;;;;;;;26.62;26.04;100354.22;4364392;32;33738;-87
2022/06/14 09:39:04;;;;;;;2.97;1.20;;;;;;;26.67;27.81;100347.31;4367296;32;32731;-88
2022/06/14 09:42:02;;;;;;;3.00;1.15;;;;;;;26.52;26.59;100357.00;4363486;32;33669;-87
2022/06/14 09:44:39;;;;;;;2.60;0.90;;;;;;;26.13;26.99;100357.28;4369750;32;33213;-88
2022/06/14 09:47:27;;;;;;;5.05;1.00;;;;;;;26.65;27.35;100345.78;4380208;32;32978;-88
2022/06/14 09:50:19;;;;;;;3.95;0.70;;;;;;;26.95;25.60;100339.03;4369121;32;33998;-88
2022/06/14 09:53:00;;;;;;;2.17;1.20;;;;;;;27.01;25.62;100341.09;4380438;32;33272;-88
2022/06/14 09:55:46;;;;;;;4.85;1.20;;;;;;;26.81;27.31;100335.87;4351557;32;32825;-87
2022/06/14 09:58:43;;;;;;;4.55;1.50;;;;;;;26.61;27.54;100350.66;4372175;32;33287;-87
2022/06/14 10:01:26;;;;;;;3.28;1.25;;;;;;;26.50;27.00;100343.62;4386492;32;33250;-88
2022/06/14 10:03:59;;;;;;;3.67;1.02;;;;;;;26.34;26.54;100343.44;4369964;32;34088;-88
2022/06/14 10:06:41;;;;;;;3.97;1.30;;;;;;;26.19;25.30;100339.59;4370705;32;34295;-88
2022/06/14 10:09:42;;;;;;;5.18;1.58;;;;;;;26.41;26.05;100336.41;4374903;32;33242;-88
2022/06/14 10:12:20;;;;;;;2.90;1.00;;;;;;;26.50;25.59;100342.78;4366948;32;32727;-88
2022/06/14 10:15:01;;;;;;;3.90;1.20;;;;;;;26.49;25.51;100343.75;4368832;32;33480;-88
2022/06/14 10:17:49;;;;;;;4.95;1.20;;;;;;;26.77;24.32;100331.78;4372819;32;33166;-88
2022/06/14 10:20:56;;;;;;;2.35;1.10;;;;;;;26.65;26.37;100341.22;4366647;32;33724;-89
2022/06/14 10:23:38;;;;;;;4.80;1.55;;;;;;;25.97;26.62;100347.16;4345249;33;34111;-88
2022/06/14 10:29:16;;;;;;;3.83;1.33;;;;;;;25.46;27.57;100335.03;4370634;32;33135;-88
2022/06/14 10:32:03;;;;;;;2.58;1.00;;;;;;;25.94;27.39;100335.78;4365026;32;34744;-89
2022/06/14 10:34:49;;;;;;;1.75;1.15;;;;;;;26.10;27.35;100318.84;4384056;32;33795;-88
2022/06/14 10:37:21;;;;;;;3.58;1.10;;;;;;;25.73;27.37;100327.91;4377408;32;31356;-88
2022/06/14 10:40:24;;;;;;;5.75;1.40;;;;;;;25.62;27.48;100333.53;4386366;32;32765;-88
2022/06/14 10:43:11;;;;;;;3.33;1.10;;;;;;;25.49;31.32;100326.62;4368759;32;33855;-88
2022/06/14 10:45:54;;;;;;;8.25;1.73;;;;;;;25.99;27.19;100325.34;4382555;32;34697;-87
2022/06/14 10:48:37;;;;;;;5.00;1.67;;;;;;;26.47;26.57;100316.00;4377091;32;33170;-87
2022/06/14 10:51:31;;;;;;;2.33;1.30;;;;;;;26.36;27.03;100321.66;4374681;32;33524;-88
2022/06/14 10:54:15;;;;;;;1.87;1.10;;;;;;;26.28;27.67;100320.56;4376334;32;34323;-88
2022/06/14 10:57:06;;;;;;;2.35;1.40;;;;;;;26.22;27.43;100323.88;4373102;32;32979;-89
2022/06/14 11:00:04;;;;;;;2.92;1.15;;;;;;;26.51;27.42;100311.97;4361519;32;32689;-90
2022/06/14 11:03:17;;;;;;;3.65;1.10;;;;;;;26.00;28.13;100308.09;4377294;32;33576;-89
2022/06/14 11:06:06;;;;;;;3.20;1.10;;;;;;;25.84;27.82;100307.94;4374962;32;33972;-88
2022/06/14 11:08:58;;;;;;;3.50;1.40;;;;;;;25.06;28.79;100313.69;4385979;32;32924;-88
2022/06/14 11:14:44;;;;;;;3.97;1.30;;;;;;;25.37;28.12;100308.06;4372020;32;33386;-90
2022/06/14 11:17:26;;;;;;;6.62;1.37;;;;;;;25.35;29.10;100312.75;4377383;32;34335;-89
2022/06/14 11:20:10;;;;;;;7.60;1.35;;;;;;;25.35;28.29;100315.44;4364464;32;33661;-91
2022/06/14 11:23:12;;;;;;;1.80;1.27;;;;;;;25.11;29.17;100311.41;4342383;33;32451;-90
2022/06/14 11:26:29;;;;;;;3.17;1.45;;;;;;;25.11;31.05;100327.63;4317101;33;32766;-89
2022/06/14 11:29:23;;;;;;;2.40;1.08;;;;;;;25.69;29.14;100311.16;4342010;33;32650;-90
2022/06/14 11:32:13;;;;;;;1.25;0.90;;;;;;;25.69;29.51;100321.97;4339845;33;34270;-89
2022/06/14 11:34:52;;;;;;;5.68;1.20;;;;;;;25.64;29.60;100312.59;4321231;33;33631;-88
2022/06/14 11:38:02;;;;;;;2.43;1.20;;;;;;;25.84;28.65;100314.22;4336119;33;34640;-87
2022/06/14 11:40:39;;;;;;;3.85;1.15;;;;;;;25.97;28.29;100313.81;4332940;33;33858;-87
2022/06/14 11:43:41;;;;;;;3.35;1.55;;;;;;;26.25;27.11;100318.19;4322045;33;35931;-87
2022/06/14 11:46:20;;;;;;;0.80;0.80;;;;;;;26.39;26.43;100313.19;4324539;33;33496;-87
2022/06/14 11:49:01;;;;;;;5.53;1.50;;;;;;;26.81;26.34;100302.53;4327412;33;34274;-87
2022/06/14 11:51:54;;;;;;;1.83;0.90;;;;;;;26.95;27.56;100309.22;4331041;33;32972;-87
2022/06/14 11:54:26;;;;;;;3.40;1.20;;;;;;;26.75;27.97;100308.59;4327332;33;33823;-87
2022/06/14 11:57:05;;;;;;;2.95;1.02;;;;;;;26.30;28.43;100315.84;4339373;33;32947;-87
2022/06/14 11:59:53;;;;;;;3.15;1.30;;;;;;;26.63;27.71;100321.53;4338673;33;34729;-87
2022/06/14 12:02:47;;;;;;;2.75;1.23;;;;;;;26.63;28.31;100317.97;4336650;33;32818;-88
2022/06/14 12:05:36;;;;;;;3.53;1.15;;;;;;;26.52;29.21;100316.38;4329338;33;34262;-87
2022/06/14 12:08:24;;;;;;;5.97;1.27;;;;;;;26.46;29.05;100319.72;4338051;33;32540;-87
2022/06/14 12:11:26;;;;;;;3.78;1.37;;;;;;;26.48;28.40;100315.00;4326831;33;34598;-87
2022/06/14 12:14:10;;;;;;;10.18;1.52;;;;;;;26.76;27.70;100305.72;4293785;33;33573;-87
2022/06/14 12:17:10;;;;;;;3.53;1.35;;;;;;;27.28;27.04;100304.84;4344470;33;33114;-87
2022/06/14 12:19:39;;;;;;;;;;;;;;;27.05;26.80;100294.53;4327350;33;34463;-88
2022/06/14 12:23:03;;;;;;;1.80;1.33;;;;;;;27.15;26.61;100299.03;4327482;33;34219;-88
2022/06/14 12:29:22;;;;;;;4.50;1.40;;;;;;;27.00;29.65;100277.06;4283750;33;34408;-87
2022/06/14 12:32:02;;;;;;;4.55;1.70;;;;;;;27.80;26.17;100289.28;4327265;33;35024;-87
2022/06/14 12:34:31;;;;;;;1.85;1.05;;;;;;;27.10;27.79;100291.37;4337866;33;33025;-87
2022/06/14 12:37:32;;;;;;;2.22;1.17;;;;;;;27.57;26.50;100285.47;4340847;33;33964;-88
2022/06/14 12:40:09;;;;;;;2.72;1.10;;;;;;;27.15;27.39;100289.03;4342495;33;33732;-87
2022/06/14 12:43:04;;;;;;;3.50;1.67;;;;;;;26.73;27.17;100287.09;4324327;33;34116;-87
2022/06/14 12:45:51;;;;;;;3.03;1.37;;;;;;;26.44;28.71;100291.94;4321407;33;33251;-87
2022/06/14 12:51:26;;;;;;;3.05;1.65;;;;;;;26.25;27.65;100291.09;4330910;33;34462;-88
2022/06/14 12:54:03;;;;;;;3.58;1.12;;;;;;;25.77;29.84;100292.31;4335558;33;31938;-87
2022/06/14 12:57:14;;;;;;;8.13;1.73;;;;;;;25.95;28.17;100283.38;4342063;33;34044;-86
2022/06/14 12:59:55;;;;;;;1.98;1.25;;;;;;;25.78;28.27;100290.47;4307354;33;33536;-86